Hopedale, Illinois
Current Conditions -  °F | °C
As of 4:15 AM on Friday 31 Oct 2014 (Local Time) from KAAA Reporting Station
Overcast Overcast  
Wind Chill: 43°   Ceiling: 5000
Heat Index: 46°   Visibility: 7mi
Dew Point: 43°   Wind: 6mph
Humidity: 88%   Direction: 310°NW
Pressure: 30.08"   Gusts: NA
Location:  40.42°N, 89.41°W
Report Text: KAAA 310915Z AUTO 31005KT 7SM OVC050 08/06 A3008 RMK AO2 T00770059
Loading
Personal Weather Stations






























Interactive Weather Map
Tropical Storm Tracking
New forecast layout! Learn more

10-Day Weather Forecast

Advertisements
Track Severe Weather on mobile